Big Bear Station Historical Data
Daily Summary for November 3, 2017 Units:  English    Metric   Both
« Previous Day
Next Day »
Daily Weekly Monthly Yearly Custom
  High: Low: Average:
Temperature: 55.2 °F 34.7 °F 45.6 °F
Dew Point: 38.5 °F 15.9 °F 30.4 °F
Humidity: 96 % 34 % 57 %
Wind Speed: 7.3 mph 0.0 mph 3.1 mph
Wind Gust: -999.0 mph - -
Wind:- - WNW
Pressure: 23.53 in 23.47 in -
Precipitation: 0.00 in    
Historical Graphs
 
 
Tabular Data for November 3, 2017
Time Temperature Dew Point Pressure Wind Wind Speed Wind Gust Humidity Rainfall Rate (Hourly)
00:01 34.7 °F 33.4 °F 23.48 in West 1.7 mph -999.0 mph 95 % 0 in
00:16 34.7 °F 33.7 °F 23.47 in West 1.7 mph -999.0 mph 96 % 0 in
00:31 34.7 °F 33.7 °F 23.47 in NW 3.2 mph -999.0 mph 96 % 0 in
00:47 34.9 °F 33.9 °F 23.47 in WNW 6.3 mph -999.0 mph 96 % 0 in
01:02 34.9 °F 33.9 °F 23.47 in NNW 3.7 mph -999.0 mph 96 % 0 in
01:17 34.7 °F 33.7 °F 23.47 in WNW 4.2 mph -999.0 mph 96 % 0 in
01:32 35.2 °F 32.3 °F 23.47 in NNW 2.2 mph -999.0 mph 89 % 0 in
01:47 36.0 °F 31.0 °F 23.47 in WNW 4.2 mph -999.0 mph 82 % 0 in
02:03 36.7 °F 32.9 °F 23.48 in West 4.2 mph -999.0 mph 86 % 0 in
02:18 36.3 °F 32.8 °F 23.47 in NNW 3.7 mph -999.0 mph 87 % 0 in
02:34 37.0 °F 28.1 °F 23.47 in NW 2.7 mph -999.0 mph 70 % 0 in
02:49 37.6 °F 26.5 °F 23.47 in NW 4.7 mph -999.0 mph 64 % 0 in
03:04 38.3 °F 25.2 °F 23.48 in WNW 4.2 mph -999.0 mph 59 % 0 in
03:19 38.7 °F 22.6 °F 23.48 in NNW 1.1 mph -999.0 mph 52 % 0 in
03:34 39.4 °F 21.3 °F 23.48 in NNW 5.8 mph -999.0 mph 48 % 0 in
03:50 40.5 °F 21.3 °F 23.48 in NW 5.3 mph -999.0 mph 46 % 0 in
04:05 40.1 °F 22.5 °F 23.47 in West 3.2 mph -999.0 mph 49 % 0 in
04:21 39.7 °F 22.6 °F 23.47 in NNW 4.7 mph -999.0 mph 50 % 0 in
04:36 39.7 °F 21.6 °F 23.48 in WNW 1.1 mph -999.0 mph 48 % 0 in
04:51 39.6 °F 18.9 °F 23.48 in WNW 3.2 mph -999.0 mph 43 % 0 in
05:07 39.7 °F 19.6 °F 23.48 in NNW 4.7 mph -999.0 mph 44 % 0 in
05:22 39.7 °F 20.1 °F 23.48 in NW 3.7 mph -999.0 mph 45 % 0 in
05:37 39.9 °F 19.2 °F 23.48 in NW 1.7 mph -999.0 mph 43 % 0 in
05:52 40.3 °F 17.3 °F 23.48 in Calm   -999.0 mph 39 % 0 in
06:07 41.2 °F 16.9 °F 23.49 in NNW 2.2 mph -999.0 mph 37 % 0 in
06:23 41.4 °F 16.4 °F 23.48 in West 3.2 mph -999.0 mph 36 % 0 in
06:38 41.5 °F 15.9 °F 23.48 in NNW 2.2 mph -999.0 mph 35 % 0 in
06:53 42.3 °F 15.9 °F 23.49 in NNW 4.2 mph -999.0 mph 34 % 0 in
07:09 42.3 °F 16.6 °F 23.49 in South 1.1 mph -999.0 mph 35 % 0 in
07:24 41.7 °F 17.3 °F 23.50 in WNW 2.2 mph -999.0 mph 37 % 0 in
07:39 42.4 °F 19.2 °F 23.50 in NW 3.2 mph -999.0 mph 39 % 0 in
07:54 43.2 °F 20.5 °F 23.50 in WNW 2.7 mph -999.0 mph 40 % 0 in
08:09 43.5 °F 22.5 °F 23.51 in NW 2.7 mph -999.0 mph 43 % 0 in
08:25 45.1 °F 23.4 °F 23.51 in South 4.2 mph -999.0 mph 42 % 0 in
08:40 45.5 °F 23.7 °F 23.52 in Calm   -999.0 mph 42 % 0 in
08:55 46.2 °F 24.4 °F 23.52 in NW 2.7 mph -999.0 mph 42 % 0 in
09:10 47.1 °F 25.7 °F 23.52 in WSW 1.7 mph -999.0 mph 43 % 0 in
09:25 48.2 °F 27.3 °F 23.52 in West 6.8 mph -999.0 mph 44 % 0 in
09:41 49.5 °F 29.6 °F 23.53 in NW 7.3 mph -999.0 mph 46 % 0 in
09:56 49.8 °F 31.4 °F 23.53 in NW 3.7 mph -999.0 mph 49 % 0 in
10:11 50.7 °F 32.7 °F 23.53 in WNW 3.7 mph -999.0 mph 50 % 0 in
10:27 51.3 °F 33.8 °F 23.53 in North 3.7 mph -999.0 mph 51 % 0 in
10:42 52.2 °F 35.1 °F 23.53 in NW 4.7 mph -999.0 mph 52 % 0 in
10:58 53.2 °F 35.5 °F 23.53 in SSE 2.2 mph -999.0 mph 51 % 0 in
11:13 53.2 °F 35.5 °F 23.53 in WNW 1.7 mph -999.0 mph 51 % 0 in
11:28 53.1 °F 36.4 °F 23.53 in West 3.7 mph -999.0 mph 53 % 0 in
11:43 53.8 °F 36.6 °F 23.53 in NNW 4.7 mph -999.0 mph 52 % 0 in
11:58 53.6 °F 35.9 °F 23.53 in ESE 3.2 mph -999.0 mph 51 % 0 in
12:14 54.7 °F 36.4 °F 23.52 in WSW 5.3 mph -999.0 mph 50 % 0 in
12:29 54.0 °F 36.3 °F 23.52 in WNW 4.2 mph -999.0 mph 51 % 0 in
12:44 55.2 °F 35.3 °F 23.51 in NNW 4.2 mph -999.0 mph 47 % 0 in
13:00 55.2 °F 36.4 °F 23.51 in NW 3.2 mph -999.0 mph 49 % 0 in
13:15 54.3 °F 36.6 °F 23.51 in WNW 5.3 mph -999.0 mph 51 % 0 in
13:30 54.7 °F 36.9 °F 23.50 in WNW 6.3 mph -999.0 mph 51 % 0 in
13:45 54.3 °F 36.6 °F 23.50 in NW 4.2 mph -999.0 mph 51 % 0 in
14:01 53.8 °F 36.1 °F 23.50 in WNW 5.3 mph -999.0 mph 51 % 0 in
14:16 53.1 °F 35.4 °F 23.49 in North 3.7 mph -999.0 mph 51 % 0 in
14:31 52.5 °F 36.3 °F 23.49 in NW 4.7 mph -999.0 mph 54 % 0 in
14:46 53.1 °F 37.4 °F 23.48 in NW 3.2 mph -999.0 mph 55 % 0 in
15:02 52.9 °F 37.2 °F 23.49 in Calm   -999.0 mph 55 % 0 in
15:17 54.1 °F 37.8 °F 23.48 in NW 4.2 mph -999.0 mph 54 % 0 in
15:32 52.3 °F 38.0 °F 23.49 in WNW 4.2 mph -999.0 mph 58 % 0 in
15:47 51.1 °F 38.1 °F 23.48 in NNE 2.7 mph -999.0 mph 61 % 0 in
16:02 51.3 °F 37.5 °F 23.48 in NNW 3.2 mph -999.0 mph 59 % 0 in
16:18 51.1 °F 38.5 °F 23.48 in NNW 3.2 mph -999.0 mph 62 % 0 in
16:33 49.8 °F 38.1 °F 23.48 in NNW 7.3 mph -999.0 mph 64 % 0 in
16:49 49.5 °F 38.2 °F 23.48 in NE 3.7 mph -999.0 mph 65 % 0 in
17:04 49.1 °F 37.4 °F 23.48 in NE 1.7 mph -999.0 mph 64 % 0 in
17:19 49.1 °F 37.0 °F 23.47 in WNW 3.2 mph -999.0 mph 63 % 0 in
17:34 48.7 °F 35.9 °F 23.47 in NW 1.1 mph -999.0 mph 61 % 0 in
17:50 48.0 °F 35.6 °F 23.47 in West 1.1 mph -999.0 mph 62 % 0 in
18:05 47.7 °F 34.9 °F 23.47 in WSW 4.2 mph -999.0 mph 61 % 0 in
18:20 47.7 °F 34.5 °F 23.47 in NW 1.1 mph -999.0 mph 60 % 0 in
18:35 47.3 °F 35.3 °F 23.48 in NNW 2.2 mph -999.0 mph 63 % 0 in
18:50 46.6 °F 35.1 °F 23.48 in WNW 2.2 mph -999.0 mph 64 % 0 in
19:06 46.2 °F 35.1 °F 23.48 in West 1.7 mph -999.0 mph 65 % 0 in
19:21 46.0 °F 33.7 °F 23.47 in West 6.3 mph -999.0 mph 62 % 0 in
19:36 46.0 °F 32.9 °F 23.47 in NNW 3.2 mph -999.0 mph 60 % 0 in
19:51 46.0 °F 32.9 °F 23.47 in North 1.7 mph -999.0 mph 60 % 0 in
20:06 46.2 °F 33.1 °F 23.47 in Calm   -999.0 mph 60 % 0 in
20:22 46.2 °F 32.7 °F 23.47 in WNW 1.7 mph -999.0 mph 59 % 0 in
20:37 45.9 °F 32.4 °F 23.47 in Calm   -999.0 mph 59 % 0 in
20:52 46.0 °F 31.6 °F 23.47 in NW 2.7 mph -999.0 mph 57 % 0 in
21:07 45.9 °F 31.1 °F 23.47 in NNW 2.2 mph -999.0 mph 56 % 0 in
21:22 45.5 °F 30.3 °F 23.47 in WNW 1.7 mph -999.0 mph 55 % 0 in
21:38 45.5 °F 30.7 °F 23.47 in NW 3.2 mph -999.0 mph 56 % 0 in
21:53 45.1 °F 30.3 °F 23.47 in WNW 3.7 mph -999.0 mph 56 % 0 in
22:08 45.1 °F 29.4 °F 23.48 in West 2.7 mph -999.0 mph 54 % 0 in
22:23 45.1 °F 29.0 °F 23.47 in Calm   -999.0 mph 53 % 0 in
22:39 45.0 °F 28.9 °F 23.47 in West 2.2 mph -999.0 mph 53 % 0 in
22:54 45.0 °F 29.8 °F 23.48 in Calm   -999.0 mph 55 % 0 in
23:09 45.0 °F 30.2 °F 23.47 in NE 2.2 mph -999.0 mph 56 % 0 in
23:24 44.6 °F 31.6 °F 23.47 in West 1.1 mph -999.0 mph 60 % 0 in
23:40 44.2 °F 31.6 °F 23.47 in NW 1.7 mph -999.0 mph 61 % 0 in
23:55 43.5 °F 32.1 °F 23.47 in Calm   -999.0 mph 64 % 0 in
Big Bear CA Weather
Compliments of Weather Underground - 1.5 mb